createdAt,value
2023-03-27T00:02:07.034Z,23.02
2023-03-27T00:04:38.427Z,22.91
2023-03-27T00:07:10.947Z,22.55
2023-03-27T00:09:45.867Z,22.40
2023-03-27T00:12:18.132Z,22.72
2023-03-27T00:14:50.716Z,22.68
2023-03-27T00:17:23.995Z,22.35
2023-03-27T00:19:56.186Z,21.94
2023-03-27T00:22:27.784Z,21.90
2023-03-27T00:25:00.147Z,21.67
2023-03-27T00:27:34.019Z,21.32
2023-03-27T00:30:08.147Z,21.24
2023-03-27T00:32:40.177Z,21.00
2023-03-27T00:35:17.191Z,21.27
2023-03-27T00:37:50.060Z,21.11
2023-03-27T00:40:22.614Z,20.49
2023-03-27T00:42:59.267Z,20.86
2023-03-27T00:45:35.051Z,20.63
2023-03-27T00:48:09.513Z,20.69
2023-03-27T00:50:45.402Z,20.30
2023-03-27T00:53:21.728Z,20.50
2023-03-27T00:55:55.927Z,20.82
2023-03-27T00:58:33.390Z,20.68
2023-03-27T01:01:06.836Z,20.89
2023-03-27T01:03:40.837Z,20.87
2023-03-27T01:06:17.496Z,21.13
2023-03-27T01:08:54.555Z,20.70
2023-03-27T01:11:29.993Z,20.99
2023-03-27T01:14:15.174Z,20.81
2023-03-27T01:16:58.871Z,20.43
2023-03-27T01:20:08.721Z,20.32
2023-03-27T01:22:42.206Z,20.06
2023-03-27T01:25:29.212Z,20.11
2023-03-27T01:28:13.935Z,19.67
2023-03-27T01:31:03.556Z,19.69
2023-03-27T01:33:58.224Z,19.39
2023-03-27T01:36:53.388Z,19.63
2023-03-27T01:40:11.917Z,19.61
2023-03-27T01:43:01.796Z,19.43
2023-03-27T01:45:50.144Z,19.50
2023-03-27T01:48:25.045Z,19.25
2023-03-27T01:51:12.122Z,19.64
2023-03-27T01:53:55.209Z,19.18
2023-03-27T01:56:54.131Z,19.37
2023-03-27T01:59:28.765Z,19.50
2023-03-27T02:02:09.770Z,19.82
2023-03-27T02:04:48.941Z,19.94
2023-03-27T02:07:24.640Z,20.06
2023-03-27T02:10:00.399Z,20.33
2023-03-27T02:12:36.634Z,20.62
2023-03-27T02:15:24.129Z,20.61
2023-03-27T02:18:06.703Z,20.62
2023-03-27T02:20:40.776Z,20.39
2023-03-27T02:23:16.049Z,20.54
2023-03-27T02:25:48.811Z,20.51
2023-03-27T02:28:47.848Z,20.87
2023-03-27T02:31:32.386Z,21.15
2023-03-27T02:34:36.080Z,21.23
2023-03-27T02:37:45.846Z,21.34
2023-03-27T02:40:39.942Z,21.49
2023-03-27T02:43:45.022Z,21.66
2023-03-27T02:46:55.891Z,21.72
2023-03-27T02:49:59.819Z,21.78
2023-03-27T02:52:52.783Z,21.76
2023-03-27T02:55:29.859Z,21.62
2023-03-27T02:58:05.701Z,21.55
2023-03-27T03:00:50.305Z,21.45
2023-03-27T03:03:47.227Z,21.61
2023-03-27T03:06:38.989Z,21.65
2023-03-27T03:09:11.324Z,21.61
2023-03-27T03:11:51.733Z,21.41
2023-03-27T03:14:31.345Z,21.87
2023-03-27T03:17:03.546Z,22.01
2023-03-27T03:19:35.273Z,21.88
2023-03-27T03:22:08.178Z,21.83
2023-03-27T03:24:43.522Z,21.89
2023-03-27T03:27:24.042Z,21.95
2023-03-27T03:30:09.072Z,22.49
2023-03-27T03:33:01.529Z,22.25
2023-03-27T03:35:33.307Z,22.52
2023-03-27T03:38:08.251Z,22.57
2023-03-27T03:40:48.249Z,22.06
2023-03-27T03:43:23.138Z,22.57
2023-03-27T03:45:55.034Z,22.44
2023-03-27T03:48:27.096Z,22.32
2023-03-27T03:50:58.979Z,22.42
2023-03-27T03:53:30.927Z,22.59
2023-03-27T03:56:01.653Z,22.51
2023-03-27T03:58:35.332Z,21.92
2023-03-27T04:01:10.786Z,21.52
2023-03-27T04:03:48.776Z,21.58
2023-03-27T04:06:22.279Z,21.69
2023-03-27T04:08:54.949Z,21.77
2023-03-27T04:11:49.900Z,21.39
2023-03-27T04:14:47.630Z,21.72
2023-03-27T04:17:40.026Z,21.99
2023-03-27T04:20:14.997Z,21.53
2023-03-27T04:22:48.648Z,21.75
2023-03-27T04:25:21.123Z,21.75
2023-03-27T04:27:53.068Z,21.85
2023-03-27T04:30:29.480Z,21.85
2023-03-27T04:33:20.690Z,21.72
2023-03-27T04:36:10.574Z,21.63
2023-03-27T04:39:05.333Z,21.48
2023-03-27T04:41:36.854Z,21.61
2023-03-27T04:44:09.239Z,21.48
2023-03-27T04:46:44.799Z,21.59
2023-03-27T04:49:17.760Z,21.65
2023-03-27T04:51:56.970Z,21.47
2023-03-27T04:54:33.501Z,21.32
2023-03-27T04:57:05.383Z,21.48
2023-03-27T04:59:38.574Z,21.39
2023-03-27T05:02:29.246Z,21.15
2023-03-27T05:05:07.507Z,21.25
2023-03-27T05:07:40.998Z,21.37
2023-03-27T05:10:12.803Z,21.27
2023-03-27T05:12:48.987Z,21.34
2023-03-27T05:15:22.117Z,21.29
2023-03-27T05:17:56.399Z,21.12
2023-03-27T05:20:29.904Z,20.97
2023-03-27T05:23:08.578Z,21.01
2023-03-27T05:25:41.017Z,21.00
2023-03-27T05:28:17.131Z,20.81
2023-03-27T05:30:51.399Z,20.81
2023-03-27T05:33:25.305Z,20.91
2023-03-27T05:35:59.014Z,20.69
2023-03-27T05:38:31.451Z,20.62
2023-03-27T05:41:17.810Z,20.65
2023-03-27T05:43:53.213Z,20.38
2023-03-27T05:46:25.779Z,20.30
2023-03-27T05:49:04.529Z,20.29
2023-03-27T05:51:35.764Z,20.23
2023-03-27T05:54:07.466Z,20.26
2023-03-27T05:57:05.381Z,20.20
2023-03-27T05:59:35.946Z,20.31
2023-03-27T06:02:27.390Z,20.23
2023-03-27T06:05:06.258Z,20.07
2023-03-27T06:07:43.004Z,20.00
2023-03-27T06:10:19.327Z,19.94
2023-03-27T06:13:11.485Z,19.60
2023-03-27T06:16:03.602Z,19.82
2023-03-27T06:18:54.615Z,19.83
2023-03-27T06:21:27.232Z,19.61
2023-03-27T06:24:04.433Z,19.48
2023-03-27T06:26:36.318Z,19.68
2023-03-27T06:29:08.615Z,19.48
2023-03-27T06:31:46.629Z,19.48
2023-03-27T06:34:31.819Z,19.41
2023-03-27T06:37:08.547Z,19.27
2023-03-27T06:39:44.579Z,19.15
2023-03-27T06:42:16.224Z,19.17
2023-03-27T06:45:11.008Z,19.03
2023-03-27T06:48:21.652Z,18.89
2023-03-27T06:50:57.548Z,18.79
2023-03-27T06:53:33.189Z,18.86
2023-03-27T06:56:08.432Z,18.78
2023-03-27T06:58:59.584Z,18.75
2023-03-27T07:01:31.772Z,18.66
2023-03-27T07:04:22.830Z,18.70
2023-03-27T07:07:07.083Z,18.81
2023-03-27T07:09:42.446Z,18.80
2023-03-27T07:12:19.269Z,18.94
2023-03-27T07:14:51.797Z,18.90
2023-03-27T07:17:23.047Z,18.70
2023-03-27T07:19:56.812Z,18.67
2023-03-27T07:22:30.663Z,18.70
2023-03-27T07:25:13.854Z,18.69
2023-03-27T07:27:47.320Z,18.68
2023-03-27T07:30:18.469Z,18.75
2023-03-27T07:32:50.333Z,18.67
2023-03-27T07:35:21.631Z,18.78
2023-03-27T07:38:28.176Z,18.68
2023-03-27T07:41:12.940Z,18.46
2023-03-27T07:44:09.804Z,18.42
2023-03-27T07:46:54.152Z,18.46
2023-03-27T07:49:39.281Z,18.46
2023-03-27T07:52:16.868Z,18.42
2023-03-27T07:54:59.584Z,18.24
2023-03-27T07:57:59.793Z,18.17
2023-03-27T08:00:37.464Z,18.33
2023-03-27T08:03:16.054Z,18.19
2023-03-27T08:05:59.752Z,18.16
2023-03-27T08:08:34.319Z,18.12
2023-03-27T08:11:06.997Z,18.05
2023-03-27T08:13:42.771Z,18.24
2023-03-27T08:16:20.287Z,18.09
2023-03-27T08:18:51.713Z,18.04
2023-03-27T08:21:24.091Z,18.18
2023-03-27T08:23:57.830Z,17.97
2023-03-27T08:26:38.812Z,17.90
2023-03-27T08:29:13.504Z,17.84
2023-03-27T08:31:46.596Z,17.80
2023-03-27T08:34:19.174Z,17.74
2023-03-27T08:36:54.101Z,17.84
2023-03-27T08:39:27.204Z,17.76
2023-03-27T08:42:10.686Z,17.75
2023-03-27T08:44:42.913Z,17.78
2023-03-27T08:47:20.497Z,17.66
2023-03-27T08:50:02.090Z,17.63
2023-03-27T08:52:49.533Z,17.52
2023-03-27T08:55:41.138Z,17.51
2023-03-27T08:58:23.459Z,17.52
2023-03-27T09:01:14.101Z,17.64
2023-03-27T09:04:16.092Z,17.52
2023-03-27T09:07:04.566Z,17.49
2023-03-27T09:10:00.642Z,17.60
2023-03-27T09:13:05.927Z,17.56
2023-03-27T09:15:59.528Z,17.55
2023-03-27T09:18:41.228Z,17.53
2023-03-27T09:21:30.956Z,17.61
2023-03-27T09:24:38.023Z,17.50
2023-03-27T09:27:34.210Z,17.46
2023-03-27T09:30:31.030Z,17.53
2023-03-27T09:33:07.606Z,17.58
2023-03-27T09:35:40.085Z,17.44
2023-03-27T09:38:43.759Z,17.48
2023-03-27T09:41:32.886Z,17.48
2023-03-27T09:44:27.024Z,17.52
2023-03-27T09:47:09.496Z,17.45
2023-03-27T09:49:46.181Z,17.45
2023-03-27T09:52:38.718Z,17.39
2023-03-27T09:55:36.819Z,17.05
2023-03-27T09:58:31.486Z,17.13
2023-03-27T10:01:23.907Z,17.10
2023-03-27T10:04:01.005Z,17.02
2023-03-27T10:06:55.156Z,17.07
2023-03-27T10:09:35.960Z,17.02
2023-03-27T10:12:17.598Z,16.96
2023-03-27T10:14:53.141Z,16.85
2023-03-27T10:17:43.947Z,16.82
2023-03-27T10:20:23.625Z,16.85
2023-03-27T10:23:09.005Z,16.68
2023-03-27T10:25:52.830Z,16.83
2023-03-27T10:28:32.415Z,16.83
2023-03-27T10:31:36.079Z,16.93
2023-03-27T10:34:39.853Z,16.81
2023-03-27T10:37:32.083Z,16.93
2023-03-27T10:40:33.294Z,16.89
2023-03-27T10:43:14.660Z,16.88
2023-03-27T10:45:58.644Z,16.83
2023-03-27T10:48:49.086Z,16.86
2023-03-27T10:51:55.900Z,16.89
2023-03-27T10:54:45.037Z,16.90
2023-03-27T10:57:35.914Z,16.70
2023-03-27T11:00:22.734Z,16.63
2023-03-27T11:03:25.625Z,16.64
2023-03-27T11:06:06.248Z,16.55
2023-03-27T11:09:07.149Z,16.53
2023-03-27T11:12:14.212Z,16.51
2023-03-27T11:14:59.155Z,16.48
2023-03-27T11:17:43.551Z,16.32
2023-03-27T11:20:36.343Z,16.30
2023-03-27T11:23:59.748Z,16.12
2023-03-27T11:27:01.967Z,16.04
2023-03-27T11:29:40.074Z,16.13
2023-03-27T11:32:40.869Z,16.07
2023-03-27T11:35:26.029Z,15.95
2023-03-27T11:38:35.761Z,15.94
2023-03-27T11:41:09.517Z,15.88
2023-03-27T11:43:42.239Z,16.03
2023-03-27T11:46:48.398Z,15.92
2023-03-27T11:50:00.770Z,15.86
2023-03-27T11:52:49.801Z,15.90
2023-03-27T11:55:55.337Z,15.82
2023-03-27T11:58:31.388Z,15.86
2023-03-27T12:01:28.590Z,16.03
2023-03-27T12:04:17.045Z,15.88
2023-03-27T12:07:37.853Z,15.96
2023-03-27T12:10:44.115Z,16.00
2023-03-27T12:13:42.893Z,16.08
2023-03-27T12:17:02.138Z,16.19
2023-03-27T12:20:26.862Z,16.22
2023-03-27T12:23:13.418Z,16.22
2023-03-27T12:26:11.654Z,16.10
2023-03-27T12:29:23.490Z,16.23
2023-03-27T12:32:41.329Z,16.11
2023-03-27T12:35:34.062Z,16.09
2023-03-27T12:38:09.938Z,16.14
2023-03-27T12:40:44.935Z,16.25
2023-03-27T12:43:35.209Z,15.96
2023-03-27T12:46:30.378Z,16.06
2023-03-27T12:49:37.127Z,16.17
2023-03-27T12:52:22.130Z,16.02
2023-03-27T12:55:32.606Z,16.05
2023-03-27T12:58:06.531Z,16.14
2023-03-27T13:01:04.553Z,15.98
2023-03-27T13:04:10.849Z,16.04
2023-03-27T13:07:01.827Z,16.01
2023-03-27T13:10:03.869Z,16.01
2023-03-27T13:12:52.926Z,15.97
2023-03-27T13:15:41.208Z,16.03
2023-03-27T13:18:26.964Z,15.92
2023-03-27T13:21:27.473Z,15.81
2023-03-27T13:24:06.584Z,15.80
2023-03-27T13:27:01.186Z,15.78
2023-03-27T13:29:37.387Z,15.77
2023-03-27T13:32:42.768Z,15.44
2023-03-27T13:35:35.789Z,15.55
2023-03-27T13:38:07.160Z,15.44
2023-03-27T13:40:58.185Z,15.53
2023-03-27T13:43:30.100Z,15.58
2023-03-27T13:46:15.921Z,15.64
2023-03-27T13:49:18.050Z,15.42
2023-03-27T13:52:33.410Z,15.17
2023-03-27T13:55:20.326Z,15.12
2023-03-27T13:58:34.389Z,15.19
2023-03-27T14:01:29.876Z,15.07
2023-03-27T14:04:26.165Z,15.12
2023-03-27T14:07:43.444Z,15.12
2023-03-27T14:10:37.089Z,15.14
2023-03-27T14:13:30.500Z,15.16
2023-03-27T14:16:10.495Z,15.05
2023-03-27T14:19:03.903Z,15.14
2023-03-27T14:22:02.595Z,15.10
2023-03-27T14:24:50.952Z,15.10
2023-03-27T14:27:34.288Z,15.29
2023-03-27T14:30:32.968Z,15.38
2023-03-27T14:33:24.320Z,15.41
2023-03-27T14:36:07.635Z,15.42
2023-03-27T14:38:39.969Z,15.35
2023-03-27T14:41:30.445Z,15.37
2023-03-27T14:44:05.586Z,15.29
2023-03-27T14:46:49.827Z,15.22
2023-03-27T14:49:37.290Z,15.18
2023-03-27T14:52:13.356Z,15.19
2023-03-27T14:55:37.649Z,15.24
2023-03-27T14:59:05.200Z,15.19
2023-03-27T15:01:58.167Z,15.37
2023-03-27T15:04:49.021Z,15.45
2023-03-27T15:07:39.512Z,15.49
2023-03-27T15:11:10.115Z,15.45
2023-03-27T15:13:54.882Z,15.44
2023-03-27T15:17:09.601Z,15.51
2023-03-27T15:20:15.775Z,15.52
2023-03-27T15:23:08.120Z,15.45
2023-03-27T15:26:26.572Z,15.49
2023-03-27T15:29:24.695Z,15.70
2023-03-27T15:32:23.611Z,15.62
2023-03-27T15:35:55.261Z,15.81
2023-03-27T15:39:04.613Z,15.72
2023-03-27T15:42:13.537Z,15.76
2023-03-27T15:45:05.861Z,15.62
2023-03-27T15:47:37.541Z,15.75
2023-03-27T15:50:26.323Z,15.83
2023-03-27T15:53:49.932Z,15.63
2023-03-27T15:56:42.950Z,15.73
2023-03-27T15:59:51.886Z,15.76
2023-03-27T16:02:26.535Z,15.76
2023-03-27T16:05:34.761Z,15.75
2023-03-27T16:08:06.535Z,15.91
2023-03-27T16:10:37.254Z,15.81
2023-03-27T16:14:11.927Z,15.85
2023-03-27T16:17:02.145Z,15.67
2023-03-27T16:19:50.879Z,15.87
2023-03-27T16:22:32.863Z,15.74
2023-03-27T16:25:22.230Z,15.58
2023-03-27T16:28:00.169Z,15.69
2023-03-27T16:30:49.829Z,15.76
2023-03-27T16:33:24.032Z,15.75
2023-03-27T16:36:14.567Z,15.75
2023-03-27T16:39:05.696Z,15.80
2023-03-27T16:41:55.072Z,15.84
2023-03-27T16:44:44.159Z,15.93
2023-03-27T16:47:34.721Z,15.94
2023-03-27T16:53:17.616Z,16.03
2023-03-27T16:56:07.358Z,16.02
2023-03-27T16:58:55.965Z,15.98
2023-03-27T17:01:27.276Z,16.01
2023-03-27T17:03:59.300Z,15.99
2023-03-27T17:06:29.904Z,16.04
2023-03-27T17:09:01.400Z,15.89
2023-03-27T17:11:32.653Z,16.02
2023-03-27T17:14:04.841Z,15.99
2023-03-27T17:16:36.789Z,15.94
2023-03-27T17:19:08.220Z,15.99
2023-03-27T17:21:39.262Z,15.95
2023-03-27T17:24:10.960Z,16.08
2023-03-27T17:26:42.350Z,16.04
2023-03-27T17:29:13.831Z,15.96
2023-03-27T17:31:45.096Z,16.01
2023-03-27T17:34:16.722Z,16.10
2023-03-27T17:36:54.282Z,16.23
2023-03-27T17:39:26.619Z,16.14
2023-03-27T17:41:57.529Z,16.09
2023-03-27T17:44:28.734Z,16.17
2023-03-27T17:46:59.851Z,16.25
2023-03-27T17:49:32.827Z,16.18
2023-03-27T17:52:09.212Z,16.20
2023-03-27T17:54:41.988Z,16.25
2023-03-27T17:57:13.487Z,16.25
2023-03-27T17:59:47.892Z,16.25
2023-03-27T18:02:23.430Z,16.03
2023-03-27T18:04:55.549Z,16.17
2023-03-27T18:07:27.677Z,16.13
2023-03-27T18:09:59.084Z,16.14
2023-03-27T18:12:30.595Z,15.92
2023-03-27T18:15:01.987Z,15.90
2023-03-27T18:17:36.330Z,16.06
2023-03-27T18:20:12.766Z,15.97
2023-03-27T18:22:44.387Z,16.19
2023-03-27T18:25:15.540Z,15.80
2023-03-27T18:27:46.771Z,15.99
2023-03-27T18:30:19.547Z,16.15
2023-03-27T18:32:51.077Z,16.14
2023-03-27T18:35:23.185Z,16.13
2023-03-27T18:37:55.371Z,16.11
2023-03-27T18:40:26.783Z,16.11
2023-03-27T18:42:58.089Z,16.11
2023-03-27T18:45:29.304Z,16.05
2023-03-27T18:48:00.475Z,16.12
2023-03-27T18:50:32.932Z,16.18
2023-03-27T18:53:04.503Z,16.23
2023-03-27T18:55:35.767Z,16.21
2023-03-27T18:58:07.878Z,16.34
2023-03-27T19:00:39.946Z,16.39
2023-03-27T19:03:19.447Z,16.39
2023-03-27T19:05:50.980Z,16.64
2023-03-27T19:08:23.243Z,16.81
2023-03-27T19:10:59.098Z,17.18
2023-03-27T19:13:57.259Z,17.12
2023-03-27T19:16:34.008Z,17.21
2023-03-27T19:19:24.358Z,18.42
2023-03-27T19:22:28.124Z,17.48
2023-03-27T19:25:07.252Z,17.64
2023-03-27T19:27:39.895Z,18.23
2023-03-27T19:30:13.314Z,18.50
2023-03-27T19:32:44.680Z,18.77
2023-03-27T19:35:16.196Z,19.13
2023-03-27T19:37:47.615Z,19.17
2023-03-27T19:40:20.127Z,18.77
2023-03-27T19:42:52.211Z,19.27
2023-03-27T19:45:23.439Z,19.31
2023-03-27T19:47:55.350Z,19.34
2023-03-27T19:50:25.949Z,19.57
2023-03-27T19:53:11.310Z,19.65
2023-03-27T19:55:43.750Z,19.20
2023-03-27T19:58:15.156Z,18.75
2023-03-27T20:00:51.608Z,18.75
2023-03-27T20:03:25.846Z,18.57
2023-03-27T20:06:06.777Z,17.98
2023-03-27T20:08:41.125Z,18.37
2023-03-27T20:11:12.692Z,18.08
2023-03-27T20:13:55.272Z,18.01
2023-03-27T20:16:29.825Z,17.90
2023-03-27T20:19:07.535Z,18.09
2023-03-27T20:21:42.686Z,18.00
2023-03-27T20:24:18.768Z,18.11
2023-03-27T20:26:58.531Z,18.14
2023-03-27T20:29:30.231Z,18.15
2023-03-27T20:32:01.746Z,17.98
2023-03-27T20:34:33.849Z,17.90
2023-03-27T20:37:13.484Z,18.01
2023-03-27T20:39:50.338Z,18.13
2023-03-27T20:42:24.664Z,17.98
2023-03-27T20:44:59.875Z,18.14
2023-03-27T20:47:41.043Z,18.35
2023-03-27T20:50:13.344Z,18.73
2023-03-27T20:52:48.312Z,19.10
2023-03-27T20:55:32.484Z,19.38
2023-03-27T20:58:08.040Z,19.49
2023-03-27T21:00:39.412Z,19.68
2023-03-27T21:03:11.199Z,19.14
2023-03-27T21:05:42.637Z,19.26
2023-03-27T21:08:14.090Z,19.93
2023-03-27T21:10:45.210Z,19.72
2023-03-27T21:13:16.502Z,19.81
2023-03-27T21:15:48.109Z,19.67
2023-03-27T21:18:21.275Z,19.53
2023-03-27T21:20:53.150Z,19.34
2023-03-27T21:23:23.805Z,19.05
2023-03-27T21:25:54.960Z,19.04
2023-03-27T21:28:26.675Z,18.95
2023-03-27T21:30:57.830Z,18.92
2023-03-27T21:33:28.951Z,18.73
2023-03-27T21:36:00.394Z,18.95
2023-03-27T21:38:31.270Z,19.24
2023-03-27T21:41:04.461Z,19.67
2023-03-27T21:43:36.622Z,19.59
2023-03-27T21:46:08.330Z,19.46
2023-03-27T21:48:41.897Z,19.72
2023-03-27T21:51:13.593Z,20.40
2023-03-27T21:53:44.725Z,20.44
2023-03-27T21:56:16.154Z,20.85
2023-03-27T21:58:47.441Z,21.05
2023-03-27T22:01:18.369Z,21.00
2023-03-27T22:03:49.788Z,20.82
2023-03-27T22:06:20.950Z,20.39
2023-03-27T22:08:52.003Z,20.19
2023-03-27T22:11:23.290Z,20.08
2023-03-27T22:13:54.602Z,19.96
2023-03-27T22:16:25.398Z,19.96
2023-03-27T22:18:56.711Z,19.83
2023-03-27T22:21:30.791Z,20.07
2023-03-27T22:24:02.264Z,19.74
2023-03-27T22:26:35.258Z,19.87
2023-03-27T22:29:09.226Z,19.99
2023-03-27T22:31:40.498Z,20.03
2023-03-27T22:34:12.225Z,20.25
2023-03-27T22:36:43.427Z,20.21
2023-03-27T22:39:14.812Z,20.06
2023-03-27T22:41:46.003Z,19.85
2023-03-27T22:44:17.078Z,19.92
2023-03-27T22:46:48.365Z,19.87
2023-03-27T22:49:19.568Z,20.33
2023-03-27T22:51:50.885Z,21.13
2023-03-27T22:54:22.200Z,21.21
2023-03-27T22:56:56.492Z,21.01
2023-03-27T22:59:28.041Z,20.63
2023-03-27T23:01:59.542Z,20.96
2023-03-27T23:04:33.932Z,20.78
2023-03-27T23:07:05.337Z,20.93
2023-03-27T23:09:36.954Z,20.43
2023-03-27T23:12:08.060Z,20.90
2023-03-27T23:14:39.548Z,21.03
2023-03-27T23:17:10.946Z,20.68
2023-03-27T23:19:42.348Z,20.07
2023-03-27T23:22:13.662Z,20.11
2023-03-27T23:24:44.774Z,20.35
2023-03-27T23:27:15.840Z,20.53
2023-03-27T23:29:47.388Z,21.96
2023-03-27T23:32:18.485Z,21.34
2023-03-27T23:34:49.950Z,22.14
2023-03-27T23:37:21.320Z,22.17
2023-03-27T23:39:52.591Z,21.21
2023-03-27T23:42:23.677Z,21.02
2023-03-27T23:44:55.872Z,21.06
2023-03-27T23:47:26.567Z,21.22
2023-03-27T23:49:57.928Z,20.88
2023-03-27T23:52:28.866Z,21.11
2023-03-27T23:55:00.180Z,21.28
2023-03-27T23:57:31.732Z,21.17
